sensor_id;sensor_type;location;lat;lon;timestamp;pressure;altitude;pressure_sealevel;temperature;humidity
72110;BME280;59983;52.010;5.420;2023-02-15T00:01:50;102972.53;;;4.83;80.89
72110;BME280;59983;52.010;5.420;2023-02-15T00:04:20;102979.88;;;4.66;81.38
72110;BME280;59983;52.010;5.420;2023-02-15T00:06:47;102966.50;;;4.49;81.16
72110;BME280;59983;52.010;5.420;2023-02-15T00:09:14;102968.25;;;4.38;81.01
72110;BME280;59983;52.010;5.420;2023-02-15T00:11:41;102957.06;;;4.46;81.91
72110;BME280;59983;52.010;5.420;2023-02-15T00:14:20;102961.72;;;4.51;82.02
72110;BME280;59983;52.010;5.420;2023-02-15T00:16:49;102957.44;;;4.55;81.71
72110;BME280;59983;52.010;5.420;2023-02-15T00:19:20;102957.06;;;4.46;81.78
72110;BME280;59983;52.010;5.420;2023-02-15T00:21:47;102950.44;;;4.54;81.83
72110;BME280;59983;52.010;5.420;2023-02-15T00:24:16;102952.00;;;4.50;81.65
72110;BME280;59983;52.010;5.420;2023-02-15T00:26:44;102953.31;;;4.47;81.59
72110;BME280;59983;52.010;5.420;2023-02-15T00:29:12;102951.41;;;4.43;81.25
72110;BME280;59983;52.010;5.420;2023-02-15T00:31:40;102950.63;;;4.47;81.65
72110;BME280;59983;52.010;5.420;2023-02-15T00:34:07;102952.69;;;4.40;82.07
72110;BME280;59983;52.010;5.420;2023-02-15T00:36:36;102951.06;;;4.39;81.38
72110;BME280;59983;52.010;5.420;2023-02-15T00:39:03;102947.75;;;4.32;81.52
72110;BME280;59983;52.010;5.420;2023-02-15T00:41:31;102950.41;;;4.27;81.82
72110;BME280;59983;52.010;5.420;2023-02-15T00:43:58;102940.22;;;4.29;80.98
72110;BME280;59983;52.010;5.420;2023-02-15T00:46:24;102935.97;;;4.33;81.01
72110;BME280;59983;52.010;5.420;2023-02-15T00:48:51;102934.59;;;4.31;81.55
72110;BME280;59983;52.010;5.420;2023-02-15T00:51:17;102929.28;;;4.36;81.91
72110;BME280;59983;52.010;5.420;2023-02-15T00:53:44;102932.91;;;4.46;81.87
72110;BME280;59983;52.010;5.420;2023-02-15T00:56:11;102925.44;;;4.53;81.83
72110;BME280;59983;52.010;5.420;2023-02-15T00:58:37;102934.25;;;4.49;81.68
72110;BME280;59983;52.010;5.420;2023-02-15T01:01:13;102935.69;;;4.57;81.84
72110;BME280;59983;52.010;5.420;2023-02-15T01:03:40;102933.19;;;4.50;81.64
72110;BME280;59983;52.010;5.420;2023-02-15T01:06:10;102931.91;;;4.52;82.00
72110;BME280;59983;52.010;5.420;2023-02-15T01:08:38;102926.44;;;4.47;81.83
72110;BME280;59983;52.010;5.420;2023-02-15T01:11:06;102928.84;;;4.44;82.74
72110;BME280;59983;52.010;5.420;2023-02-15T01:13:35;102924.31;;;4.49;81.80
72110;BME280;59983;52.010;5.420;2023-02-15T01:16:02;102928.03;;;4.43;81.65
72110;BME280;59983;52.010;5.420;2023-02-15T01:18:30;102922.41;;;4.45;82.77
72110;BME280;59983;52.010;5.420;2023-02-15T01:20:56;102924.56;;;4.48;81.40
72110;BME280;59983;52.010;5.420;2023-02-15T01:23:23;102919.38;;;4.41;81.90
72110;BME280;59983;52.010;5.420;2023-02-15T01:25:50;102916.78;;;4.46;81.92
72110;BME280;59983;52.010;5.420;2023-02-15T01:28:16;102912.97;;;4.42;82.55
72110;BME280;59983;52.010;5.420;2023-02-15T01:30:43;102910.28;;;4.42;82.26
72110;BME280;59983;52.010;5.420;2023-02-15T01:33:10;102907.75;;;4.58;82.94
72110;BME280;59983;52.010;5.420;2023-02-15T01:35:45;102903.75;;;4.60;83.26
72110;BME280;59983;52.010;5.420;2023-02-15T01:38:13;102904.81;;;4.59;83.05
72110;BME280;59983;52.010;5.420;2023-02-15T01:40:40;102896.75;;;4.59;83.11
72110;BME280;59983;52.010;5.420;2023-02-15T01:43:11;102892.88;;;4.77;83.51
72110;BME280;59983;52.010;5.420;2023-02-15T01:45:38;102904.13;;;4.69;83.23
72110;BME280;59983;52.010;5.420;2023-02-15T01:48:18;102898.25;;;4.50;82.75
72110;BME280;59983;52.010;5.420;2023-02-15T01:50:57;102899.31;;;4.49;83.06
72110;BME280;59983;52.010;5.420;2023-02-15T01:53:30;102894.72;;;4.44;82.98
72110;BME280;59983;52.010;5.420;2023-02-15T01:56:05;102895.06;;;4.26;82.39
72110;BME280;59983;52.010;5.420;2023-02-15T01:58:34;102895.44;;;4.13;82.06
72110;BME280;59983;52.010;5.420;2023-02-15T02:01:04;102892.56;;;3.97;82.00
72110;BME280;59983;52.010;5.420;2023-02-15T02:04:08;102897.84;;;3.70;82.29
72110;BME280;59983;52.010;5.420;2023-02-15T02:06:37;102889.19;;;3.63;81.82
72110;BME280;59983;52.010;5.420;2023-02-15T02:09:05;102888.13;;;3.86;82.87
72110;BME280;59983;52.010;5.420;2023-02-15T02:11:32;102880.91;;;4.09;82.86
72110;BME280;59983;52.010;5.420;2023-02-15T02:13:59;102878.50;;;4.34;84.24
72110;BME280;59983;52.010;5.420;2023-02-15T02:22:22;102867.88;;;4.76;84.65
72110;BME280;59983;52.010;5.420;2023-02-15T02:30:41;102858.06;;;4.92;85.61
72110;BME280;59983;52.010;5.420;2023-02-15T02:41:43;102842.38;;;4.79;84.45
72110;BME280;59983;52.010;5.420;2023-02-15T02:44:41;102837.13;;;4.62;84.71
72110;BME280;59983;52.010;5.420;2023-02-15T02:47:29;102839.91;;;4.72;85.20
72110;BME280;59983;52.010;5.420;2023-02-15T02:50:00;102836.53;;;4.87;85.40
72110;BME280;59983;52.010;5.420;2023-02-15T02:52:48;102835.97;;;4.85;85.18
72110;BME280;59983;52.010;5.420;2023-02-15T02:55:19;102834.31;;;4.79;85.15
72110;BME280;59983;52.010;5.420;2023-02-15T03:00:22;102827.13;;;4.58;85.08
72110;BME280;59983;52.010;5.420;2023-02-15T03:02:53;102820.69;;;4.59;85.31
72110;BME280;59983;52.010;5.420;2023-02-15T03:05:24;102828.53;;;4.65;85.23
72110;BME280;59983;52.010;5.420;2023-02-15T03:07:53;102818.50;;;4.55;85.24
72110;BME280;59983;52.010;5.420;2023-02-15T03:10:24;102821.00;;;4.62;85.26
72110;BME280;59983;52.010;5.420;2023-02-15T03:12:51;102821.88;;;4.73;84.91
72110;BME280;59983;52.010;5.420;2023-02-15T03:15:29;102823.28;;;4.80;84.83
72110;BME280;59983;52.010;5.420;2023-02-15T03:18:18;102811.75;;;4.85;85.18
72110;BME280;59983;52.010;5.420;2023-02-15T03:20:46;102811.59;;;4.97;84.61
72110;BME280;59983;52.010;5.420;2023-02-15T03:23:18;102804.28;;;4.92;84.81
72110;BME280;59983;52.010;5.420;2023-02-15T03:25:50;102799.97;;;4.86;84.62
72110;BME280;59983;52.010;5.420;2023-02-15T03:28:25;102807.63;;;4.72;84.59
72110;BME280;59983;52.010;5.420;2023-02-15T03:30:59;102800.81;;;4.60;84.32
72110;BME280;59983;52.010;5.420;2023-02-15T03:33:28;102796.00;;;4.62;84.77
72110;BME280;59983;52.010;5.420;2023-02-15T03:36:33;102791.13;;;4.59;85.09
72110;BME280;59983;52.010;5.420;2023-02-15T03:39:17;102790.97;;;4.70;85.10
72110;BME280;59983;52.010;5.420;2023-02-15T03:41:49;102792.09;;;4.79;85.37
72110;BME280;59983;52.010;5.420;2023-02-15T03:44:29;102786.94;;;4.73;85.30
72110;BME280;59983;52.010;5.420;2023-02-15T03:47:10;102790.56;;;4.57;84.21
72110;BME280;59983;52.010;5.420;2023-02-15T03:52:20;102789.25;;;4.59;85.08
72110;BME280;59983;52.010;5.420;2023-02-15T03:54:48;102788.69;;;4.57;84.81
72110;BME280;59983;52.010;5.420;2023-02-15T03:57:28;102784.44;;;4.61;84.93
72110;BME280;59983;52.010;5.420;2023-02-15T04:00:15;102785.50;;;4.60;84.84
72110;BME280;59983;52.010;5.420;2023-02-15T04:03:23;102781.09;;;4.49;85.10
72110;BME280;59983;52.010;5.420;2023-02-15T04:05:53;102769.34;;;4.55;84.51
72110;BME280;59983;52.010;5.420;2023-02-15T04:08:20;102769.38;;;4.60;85.43
72110;BME280;59983;52.010;5.420;2023-02-15T04:10:46;102786.00;;;4.57;85.30
72110;BME280;59983;52.010;5.420;2023-02-15T04:13:20;102782.72;;;4.50;85.59
72110;BME280;59983;52.010;5.420;2023-02-15T04:15:46;102783.22;;;4.42;85.13
72110;BME280;59983;52.010;5.420;2023-02-15T04:18:41;102785.94;;;4.20;85.21
72110;BME280;59983;52.010;5.420;2023-02-15T04:21:29;102778.34;;;4.12;85.08
72110;BME280;59983;52.010;5.420;2023-02-15T04:24:15;102778.69;;;4.20;85.24
72110;BME280;59983;52.010;5.420;2023-02-15T04:27:01;102777.38;;;4.23;85.08
72110;BME280;59983;52.010;5.420;2023-02-15T04:29:28;102782.19;;;4.21;84.96
72110;BME280;59983;52.010;5.420;2023-02-15T04:31:57;102784.03;;;4.15;84.95
72110;BME280;59983;52.010;5.420;2023-02-15T04:34:24;102777.28;;;4.13;85.20
72110;BME280;59983;52.010;5.420;2023-02-15T04:36:50;102775.75;;;4.22;85.22
72110;BME280;59983;52.010;5.420;2023-02-15T04:39:18;102769.47;;;4.38;85.48
72110;BME280;59983;52.010;5.420;2023-02-15T04:41:45;102766.56;;;4.45;85.56
72110;BME280;59983;52.010;5.420;2023-02-15T04:44:11;102777.72;;;4.32;85.78
72110;BME280;59983;52.010;5.420;2023-02-15T04:46:38;102773.63;;;4.24;86.05
72110;BME280;59983;52.010;5.420;2023-02-15T04:49:04;102767.19;;;4.25;86.08
72110;BME280;59983;52.010;5.420;2023-02-15T04:51:31;102766.94;;;4.26;86.29
72110;BME280;59983;52.010;5.420;2023-02-15T04:53:58;102760.03;;;4.36;86.71
72110;BME280;59983;52.010;5.420;2023-02-15T04:56:24;102761.47;;;4.48;86.59
72110;BME280;59983;52.010;5.420;2023-02-15T04:58:51;102753.41;;;4.48;86.64
72110;BME280;59983;52.010;5.420;2023-02-15T05:01:17;102750.13;;;4.41;86.13
72110;BME280;59983;52.010;5.420;2023-02-15T05:03:44;102757.28;;;4.31;86.37
72110;BME280;59983;52.010;5.420;2023-02-15T05:06:10;102760.84;;;4.36;86.29
72110;BME280;59983;52.010;5.420;2023-02-15T05:08:37;102764.09;;;4.38;86.93
72110;BME280;59983;52.010;5.420;2023-02-15T05:11:03;102754.81;;;4.24;86.26
72110;BME280;59983;52.010;5.420;2023-02-15T05:13:30;102750.03;;;4.26;86.35
72110;BME280;59983;52.010;5.420;2023-02-15T05:15:56;102750.84;;;4.32;86.80
72110;BME280;59983;52.010;5.420;2023-02-15T05:18:23;102747.34;;;4.31;86.76
72110;BME280;59983;52.010;5.420;2023-02-15T05:20:50;102741.19;;;4.31;86.97
72110;BME280;59983;52.010;5.420;2023-02-15T05:23:16;102735.59;;;4.37;86.28
72110;BME280;59983;52.010;5.420;2023-02-15T05:25:47;102731.50;;;4.30;86.47
72110;BME280;59983;52.010;5.420;2023-02-15T05:28:33;102744.66;;;4.26;87.22
72110;BME280;59983;52.010;5.420;2023-02-15T05:31:14;102741.97;;;4.26;86.84
72110;BME280;59983;52.010;5.420;2023-02-15T05:33:42;102741.34;;;4.19;86.73
72110;BME280;59983;52.010;5.420;2023-02-15T05:36:09;102749.88;;;4.11;86.33
72110;BME280;59983;52.010;5.420;2023-02-15T05:38:37;102747.28;;;4.21;87.06
72110;BME280;59983;52.010;5.420;2023-02-15T05:41:04;102750.50;;;4.23;86.99
72110;BME280;59983;52.010;5.420;2023-02-15T05:43:32;102741.63;;;4.17;86.50
72110;BME280;59983;52.010;5.420;2023-02-15T05:46:00;102743.41;;;4.07;86.68
72110;BME280;59983;52.010;5.420;2023-02-15T05:48:27;102741.88;;;4.16;86.94
72110;BME280;59983;52.010;5.420;2023-02-15T05:50:58;102742.88;;;4.10;86.76
72110;BME280;59983;52.010;5.420;2023-02-15T05:53:26;102749.56;;;4.07;86.70
72110;BME280;59983;52.010;5.420;2023-02-15T05:55:53;102751.19;;;4.08;87.09
72110;BME280;59983;52.010;5.420;2023-02-15T05:58:20;102751.13;;;4.03;87.09
72110;BME280;59983;52.010;5.420;2023-02-15T06:00:46;102754.00;;;3.96;86.86
72110;BME280;59983;52.010;5.420;2023-02-15T06:03:13;102743.22;;;3.91;86.56
72110;BME280;59983;52.010;5.420;2023-02-15T06:05:40;102745.75;;;3.76;86.61
72110;BME280;59983;52.010;5.420;2023-02-15T06:08:06;102736.88;;;3.76;86.74
72110;BME280;59983;52.010;5.420;2023-02-15T06:10:32;102749.50;;;3.75;86.39
72110;BME280;59983;52.010;5.420;2023-02-15T06:12:59;102751.94;;;3.77;86.91
72110;BME280;59983;52.010;5.420;2023-02-15T06:15:25;102741.69;;;3.74;86.79
72110;BME280;59983;52.010;5.420;2023-02-15T06:17:52;102743.56;;;3.73;87.25
72110;BME280;59983;52.010;5.420;2023-02-15T06:20:18;102737.41;;;3.73;86.88
72110;BME280;59983;52.010;5.420;2023-02-15T06:22:46;102731.97;;;3.67;87.25
72110;BME280;59983;52.010;5.420;2023-02-15T06:25:12;102732.28;;;3.71;87.37
72110;BME280;59983;52.010;5.420;2023-02-15T06:27:41;102735.81;;;3.77;87.15
72110;BME280;59983;52.010;5.420;2023-02-15T06:30:09;102732.13;;;3.83;86.56
72110;BME280;59983;52.010;5.420;2023-02-15T06:32:36;102729.09;;;3.74;86.77
72110;BME280;59983;52.010;5.420;2023-02-15T06:35:03;102735.19;;;3.69;86.98
72110;BME280;59983;52.010;5.420;2023-02-15T06:37:30;102734.00;;;3.82;87.31
72110;BME280;59983;52.010;5.420;2023-02-15T06:39:56;102733.69;;;3.79;86.84
72110;BME280;59983;52.010;5.420;2023-02-15T06:42:24;102729.34;;;3.73;86.98
72110;BME280;59983;52.010;5.420;2023-02-15T06:44:51;102735.91;;;3.60;87.14
72110;BME280;59983;52.010;5.420;2023-02-15T06:47:18;102732.75;;;3.63;87.37
72110;BME280;59983;52.010;5.420;2023-02-15T06:49:44;102731.94;;;3.62;87.26
72110;BME280;59983;52.010;5.420;2023-02-15T06:52:11;102727.81;;;3.55;86.78
72110;BME280;59983;52.010;5.420;2023-02-15T06:54:39;102733.91;;;3.50;86.81
72110;BME280;59983;52.010;5.420;2023-02-15T06:57:06;102732.84;;;3.51;86.57
72110;BME280;59983;52.010;5.420;2023-02-15T06:59:32;102734.72;;;3.51;87.05
72110;BME280;59983;52.010;5.420;2023-02-15T07:01:59;102739.16;;;3.40;86.76
72110;BME280;59983;52.010;5.420;2023-02-15T07:04:25;102729.63;;;3.27;87.06
72110;BME280;59983;52.010;5.420;2023-02-15T07:06:52;102729.81;;;3.21;86.78
72110;BME280;59983;52.010;5.420;2023-02-15T07:09:19;102734.84;;;3.17;87.19
72110;BME280;59983;52.010;5.420;2023-02-15T07:11:46;102734.34;;;3.20;87.57
72110;BME280;59983;52.010;5.420;2023-02-15T07:14:30;102723.25;;;3.33;86.86
72110;BME280;59983;52.010;5.420;2023-02-15T07:16:58;102720.94;;;3.42;87.39
72110;BME280;59983;52.010;5.420;2023-02-15T07:19:24;102724.50;;;3.48;87.13
72110;BME280;59983;52.010;5.420;2023-02-15T07:21:51;102731.22;;;3.50;87.06
72110;BME280;59983;52.010;5.420;2023-02-15T07:24:17;102716.63;;;3.41;87.57
72110;BME280;59983;52.010;5.420;2023-02-15T07:26:44;102721.50;;;3.44;87.49
72110;BME280;59983;52.010;5.420;2023-02-15T07:29:10;102719.75;;;3.55;86.67
72110;BME280;59983;52.010;5.420;2023-02-15T07:31:37;102720.56;;;3.55;86.65
72110;BME280;59983;52.010;5.420;2023-02-15T07:34:05;102723.19;;;3.50;87.17
72110;BME280;59983;52.010;5.420;2023-02-15T07:36:32;102704.91;;;3.47;86.92
72110;BME280;59983;52.010;5.420;2023-02-15T07:38:59;102703.59;;;3.50;87.69
72110;BME280;59983;52.010;5.420;2023-02-15T07:41:25;102694.84;;;3.59;87.76
72110;BME280;59983;52.010;5.420;2023-02-15T07:43:52;102703.25;;;3.68;87.68
72110;BME280;59983;52.010;5.420;2023-02-15T07:46:18;102701.28;;;3.85;87.45
72110;BME280;59983;52.010;5.420;2023-02-15T07:48:47;102691.88;;;3.83;87.10
72110;BME280;59983;52.010;5.420;2023-02-15T07:51:14;102698.09;;;3.88;87.08
72110;BME280;59983;52.010;5.420;2023-02-15T07:53:42;102694.41;;;3.94;87.54
72110;BME280;59983;52.010;5.420;2023-02-15T07:56:13;102693.13;;;4.02;87.60
72110;BME280;59983;52.010;5.420;2023-02-15T07:58:40;102693.81;;;4.19;87.14
72110;BME280;59983;52.010;5.420;2023-02-15T08:01:24;102689.81;;;4.22;87.17
72110;BME280;59983;52.010;5.420;2023-02-15T08:03:51;102685.56;;;4.26;87.11
72110;BME280;59983;52.010;5.420;2023-02-15T08:06:18;102686.97;;;4.34;87.22
72110;BME280;59983;52.010;5.420;2023-02-15T08:08:45;102688.34;;;4.41;86.62
72110;BME280;59983;52.010;5.420;2023-02-15T08:16:52;102676.25;;;4.81;86.05
72110;BME280;59983;52.010;5.420;2023-02-15T08:19:21;102674.44;;;4.97;86.72
72110;BME280;59983;52.010;5.420;2023-02-15T08:21:50;102674.72;;;5.00;85.44
72110;BME280;59983;52.010;5.420;2023-02-15T08:24:19;102677.66;;;4.94;85.36
72110;BME280;59983;52.010;5.420;2023-02-15T08:26:47;102671.19;;;4.90;85.26
72110;BME280;59983;52.010;5.420;2023-02-15T08:29:15;102675.75;;;4.94;85.27
72110;BME280;59983;52.010;5.420;2023-02-15T08:31:43;102670.97;;;4.96;84.96
72110;BME280;59983;52.010;5.420;2023-02-15T08:34:13;102675.53;;;5.01;84.94
72110;BME280;59983;52.010;5.420;2023-02-15T08:36:40;102676.88;;;5.03;84.94
72110;BME280;59983;52.010;5.420;2023-02-15T08:39:07;102667.28;;;5.18;84.96
72110;BME280;59983;52.010;5.420;2023-02-15T08:41:35;102663.81;;;5.22;84.81
72110;BME280;59983;52.010;5.420;2023-02-15T08:44:05;102679.19;;;5.32;84.76
72110;BME280;59983;52.010;5.420;2023-02-15T08:46:37;102658.19;;;5.34;84.69
72110;BME280;59983;52.010;5.420;2023-02-15T08:49:04;102656.88;;;5.42;84.54
72110;BME280;59983;52.010;5.420;2023-02-15T08:51:33;102669.25;;;5.48;84.55
72110;BME280;59983;52.010;5.420;2023-02-15T08:54:02;102663.34;;;5.56;84.48
72110;BME280;59983;52.010;5.420;2023-02-15T08:56:33;102664.72;;;5.63;83.93
72110;BME280;59983;52.010;5.420;2023-02-15T08:59:01;102660.69;;;5.71;83.93
72110;BME280;59983;52.010;5.420;2023-02-15T09:01:32;102662.59;;;5.76;83.47
72110;BME280;59983;52.010;5.420;2023-02-15T09:04:08;102662.59;;;5.76;83.90
72110;BME280;59983;52.010;5.420;2023-02-15T09:06:39;102656.41;;;5.75;83.85
72110;BME280;59983;52.010;5.420;2023-02-15T09:09:07;102659.34;;;5.79;83.51
72110;BME280;59983;52.010;5.420;2023-02-15T09:11:39;102654.31;;;5.92;83.68
72110;BME280;59983;52.010;5.420;2023-02-15T09:14:09;102655.66;;;6.10;82.85
72110;BME280;59983;52.010;5.420;2023-02-15T09:16:37;102649.72;;;6.13;82.51
72110;BME280;59983;52.010;5.420;2023-02-15T09:19:05;102652.41;;;6.18;82.68
72110;BME280;59983;52.010;5.420;2023-02-15T09:21:34;102656.44;;;6.21;82.88
72110;BME280;59983;52.010;5.420;2023-02-15T09:24:04;102651.06;;;6.16;82.53
72110;BME280;59983;52.010;5.420;2023-02-15T09:26:34;102647.28;;;6.17;83.26
72110;BME280;59983;52.010;5.420;2023-02-15T09:29:01;102645.38;;;6.38;82.88
72110;BME280;59983;52.010;5.420;2023-02-15T09:31:31;102647.81;;;6.39;82.47
72110;BME280;59983;52.010;5.420;2023-02-15T09:33:59;102635.38;;;6.48;82.59
72110;BME280;59983;52.010;5.420;2023-02-15T09:36:34;102641.84;;;6.58;82.43
72110;BME280;59983;52.010;5.420;2023-02-15T09:39:12;102643.44;;;6.64;82.05
72110;BME280;59983;52.010;5.420;2023-02-15T09:52:35;102643.00;;;7.06;81.60
72110;BME280;59983;52.010;5.420;2023-02-15T10:06:38;102642.50;;;7.04;81.08
72110;BME280;59983;52.010;5.420;2023-02-15T10:09:34;102644.63;;;7.12;80.62
72110;BME280;59983;52.010;5.420;2023-02-15T10:20:33;102646.81;;;7.54;80.10
72110;BME280;59983;52.010;5.420;2023-02-15T10:28:48;102643.06;;;7.89;79.24
72110;BME280;59983;52.010;5.420;2023-02-15T10:31:28;102641.28;;;8.09;79.10
72110;BME280;59983;52.010;5.420;2023-02-15T10:34:18;102647.41;;;8.19;77.86
72110;BME280;59983;52.010;5.420;2023-02-15T10:51:02;102647.97;;;8.50;77.93
72110;BME280;59983;52.010;5.420;2023-02-15T11:06:53;102634.44;;;8.74;76.79
72110;BME280;59983;52.010;5.420;2023-02-15T11:09:24;102627.06;;;8.80;77.29
72110;BME280;59983;52.010;5.420;2023-02-15T11:11:56;102620.44;;;8.91;76.29
72110;BME280;59983;52.010;5.420;2023-02-15T11:14:51;102619.78;;;8.99;75.86
72110;BME280;59983;52.010;5.420;2023-02-15T11:17:25;102633.56;;;9.03;75.98
72110;BME280;59983;52.010;5.420;2023-02-15T11:20:32;102618.06;;;9.08;76.48
72110;BME280;59983;52.010;5.420;2023-02-15T11:23:01;102621.56;;;9.09;76.37
72110;BME280;59983;52.010;5.420;2023-02-15T11:25:31;102615.28;;;9.14;76.21
72110;BME280;59983;52.010;5.420;2023-02-15T11:28:00;102608.88;;;9.28;75.77
72110;BME280;59983;52.010;5.420;2023-02-15T11:30:43;102603.50;;;9.42;75.61
72110;BME280;59983;52.010;5.420;2023-02-15T11:33:17;102602.56;;;9.52;76.08
72110;BME280;59983;52.010;5.420;2023-02-15T11:35:52;102604.69;;;9.55;74.94
72110;BME280;59983;52.010;5.420;2023-02-15T11:38:24;102598.00;;;9.66;75.41
72110;BME280;59983;52.010;5.420;2023-02-15T11:41:18;102586.94;;;9.81;75.27
72110;BME280;59983;52.010;5.420;2023-02-15T11:44:12;102582.47;;;10.04;75.13
72110;BME280;59983;52.010;5.420;2023-02-15T11:46:36;102577.53;;;10.06;73.61
72110;BME280;59983;52.010;5.420;2023-02-15T11:49:27;102567.78;;;10.05;73.68
72110;BME280;59983;52.010;5.420;2023-02-15T11:51:55;102559.34;;;10.07;73.38
72110;BME280;59983;52.010;5.420;2023-02-15T11:54:28;102558.97;;;10.13;74.15
72110;BME280;59983;52.010;5.420;2023-02-15T11:57:15;102539.13;;;10.32;73.22
72110;BME280;59983;52.010;5.420;2023-02-15T11:59:50;102531.69;;;10.51;73.71
72110;BME280;59983;52.010;5.420;2023-02-15T12:02:21;102533.59;;;10.64;72.58
72110;BME280;59983;52.010;5.420;2023-02-15T12:04:55;102526.53;;;10.77;72.65
72110;BME280;59983;52.010;5.420;2023-02-15T12:07:28;102529.63;;;10.98;71.98
72110;BME280;59983;52.010;5.420;2023-02-15T12:12:40;102525.28;;;11.33;70.95
72110;BME280;59983;52.010;5.420;2023-02-15T12:15:08;102527.56;;;11.40;69.25
72110;BME280;59983;52.010;5.420;2023-02-15T12:17:51;102531.16;;;11.49;67.85
72110;BME280;59983;52.010;5.420;2023-02-15T12:22:53;102531.69;;;11.37;67.95
72110;BME280;59983;52.010;5.420;2023-02-15T12:25:24;102533.13;;;11.34;68.93
72110;BME280;59983;52.010;5.420;2023-02-15T12:27:52;102526.25;;;11.37;69.13
72110;BME280;59983;52.010;5.420;2023-02-15T12:30:23;102520.44;;;11.52;67.94
72110;BME280;59983;52.010;5.420;2023-02-15T12:33:02;102522.44;;;11.60;68.52
72110;BME280;59983;52.010;5.420;2023-02-15T12:35:34;102522.78;;;11.68;67.65
72110;BME280;59983;52.010;5.420;2023-02-15T12:40:37;102513.78;;;11.81;67.93
72110;BME280;59983;52.010;5.420;2023-02-15T12:43:04;102513.16;;;11.84;67.82
72110;BME280;59983;52.010;5.420;2023-02-15T12:45:36;102505.53;;;11.95;66.60
72110;BME280;59983;52.010;5.420;2023-02-15T12:50:46;102500.97;;;12.12;67.14
72110;BME280;59983;52.010;5.420;2023-02-15T12:53:29;102497.50;;;12.29;66.86
72110;BME280;59983;52.010;5.420;2023-02-15T12:55:58;102494.13;;;12.24;66.96
72110;BME280;59983;52.010;5.420;2023-02-15T12:58:28;102493.03;;;12.33;67.46
72110;BME280;59983;52.010;5.420;2023-02-15T13:01:19;102490.94;;;12.30;65.93
72110;BME280;59983;52.010;5.420;2023-02-15T13:06:24;102484.53;;;12.35;66.11
72110;BME280;59983;52.010;5.420;2023-02-15T13:08:54;102472.06;;;12.42;65.66
72110;BME280;59983;52.010;5.420;2023-02-15T13:11:27;102486.97;;;12.45;65.38
72110;BME280;59983;52.010;5.420;2023-02-15T13:13:59;102480.44;;;12.46;65.20
72110;BME280;59983;52.010;5.420;2023-02-15T13:16:47;102481.06;;;12.60;65.74
72110;BME280;59983;52.010;5.420;2023-02-15T13:21:54;102463.97;;;12.77;64.05
72110;BME280;59983;52.010;5.420;2023-02-15T13:24:41;102476.28;;;12.74;65.06
72110;BME280;59983;52.010;5.420;2023-02-15T13:27:15;102466.53;;;12.73;64.78
72110;BME280;59983;52.010;5.420;2023-02-15T13:29:45;102467.00;;;12.67;63.42
72110;BME280;59983;52.010;5.420;2023-02-15T13:32:34;102467.78;;;12.67;65.11
72110;BME280;59983;52.010;5.420;2023-02-15T13:35:04;102463.31;;;12.80;64.80
72110;BME280;59983;52.010;5.420;2023-02-15T13:37:48;102464.28;;;12.93;65.13
72110;BME280;59983;52.010;5.420;2023-02-15T13:42:56;102460.09;;;13.13;63.19
72110;BME280;59983;52.010;5.420;2023-02-15T13:54:28;102449.41;;;12.90;64.32
72110;BME280;59983;52.010;5.420;2023-02-15T14:08:22;102453.72;;;12.74;64.70
72110;BME280;59983;52.010;5.420;2023-02-15T14:16:37;102447.94;;;12.58;66.13
72110;BME280;59983;52.010;5.420;2023-02-15T14:21:51;102449.84;;;12.58;67.93
72110;BME280;59983;52.010;5.420;2023-02-15T14:24:24;102439.44;;;12.60;68.02
72110;BME280;59983;52.010;5.420;2023-02-15T14:32:14;102434.97;;;12.72;66.95
72110;BME280;59983;52.010;5.420;2023-02-15T14:34:52;102439.78;;;12.84;66.49
72110;BME280;59983;52.010;5.420;2023-02-15T14:37:46;102436.72;;;12.94;66.44
72110;BME280;59983;52.010;5.420;2023-02-15T14:40:51;102434.97;;;12.90;66.16
72110;BME280;59983;52.010;5.420;2023-02-15T14:43:53;102431.28;;;12.86;66.36
72110;BME280;59983;52.010;5.420;2023-02-15T14:46:32;102434.97;;;12.81;65.89
72110;BME280;59983;52.010;5.420;2023-02-15T14:49:05;102436.06;;;12.71;65.57
72110;BME280;59983;52.010;5.420;2023-02-15T15:04:35;102426.81;;;12.55;66.06
72110;BME280;59983;52.010;5.420;2023-02-15T15:07:07;102418.47;;;12.52;66.81
72110;BME280;59983;52.010;5.420;2023-02-15T15:09:37;102427.41;;;12.52;66.70
72110;BME280;59983;52.010;5.420;2023-02-15T15:14:49;102432.88;;;12.52;66.76
72110;BME280;59983;52.010;5.420;2023-02-15T15:17:52;102427.88;;;12.45;67.32
72110;BME280;59983;52.010;5.420;2023-02-15T15:37:03;102431.78;;;11.96;71.58
72110;BME280;59983;52.010;5.420;2023-02-15T15:43:19;102430.53;;;12.02;70.98
72110;BME280;59983;52.010;5.420;2023-02-15T15:48:40;102430.03;;;12.00;70.09
72110;BME280;59983;52.010;5.420;2023-02-15T15:53:49;102423.31;;;11.98;70.35
72110;BME280;59983;52.010;5.420;2023-02-15T15:56:31;102423.31;;;11.98;70.60
72110;BME280;59983;52.010;5.420;2023-02-15T15:59:06;102420.59;;;11.98;70.43
72110;BME280;59983;52.010;5.420;2023-02-15T16:01:41;102424.91;;;11.99;70.46
72110;BME280;59983;52.010;5.420;2023-02-15T16:04:22;102418.69;;;11.98;70.83
72110;BME280;59983;52.010;5.420;2023-02-15T16:06:49;102421.56;;;11.93;70.64
72110;BME280;59983;52.010;5.420;2023-02-15T16:09:18;102416.72;;;11.90;71.00
72110;BME280;59983;52.010;5.420;2023-02-15T16:11:47;102416.38;;;11.83;71.40
72110;BME280;59983;52.010;5.420;2023-02-15T16:14:17;102410.88;;;11.74;71.66
72110;BME280;59983;52.010;5.420;2023-02-15T16:16:48;102420.47;;;11.72;71.67
72110;BME280;59983;52.010;5.420;2023-02-15T16:19:20;102410.56;;;11.67;71.89
72110;BME280;59983;52.010;5.420;2023-02-15T16:21:48;102407.03;;;11.67;72.12
72110;BME280;59983;52.010;5.420;2023-02-15T16:24:33;102409.19;;;11.56;72.52
72110;BME280;59983;52.010;5.420;2023-02-15T16:27:42;102415.72;;;11.46;72.67
72110;BME280;59983;52.010;5.420;2023-02-15T16:30:26;102419.63;;;11.31;73.25
72110;BME280;59983;52.010;5.420;2023-02-15T16:35:30;102415.38;;;11.17;73.35